createdAt,value
2019-01-15T00:02:04.501Z,97142.67
2019-01-15T00:04:34.814Z,97141.41
2019-01-15T00:07:04.805Z,97144.62
2019-01-15T00:09:35.110Z,97149.61
2019-01-15T00:12:07.934Z,97156.79
2019-01-15T00:14:37.802Z,97155.32
2019-01-15T00:17:09.038Z,97164.95
2019-01-15T00:19:41.397Z,97171.64
2019-01-15T00:22:11.819Z,97180.00
2019-01-15T00:24:41.594Z,97169.84
2019-01-15T00:27:11.447Z,97179.13
2019-01-15T00:29:41.758Z,97175.17
2019-01-15T00:32:11.575Z,97177.32
2019-01-15T00:34:41.822Z,97176.98
2019-01-15T00:37:12.183Z,97187.53
2019-01-15T00:39:42.217Z,97181.92
2019-01-15T00:42:15.486Z,97193.36
2019-01-15T00:44:43.571Z,97194.31
2019-01-15T00:47:13.959Z,97205.41
2019-01-15T00:49:44.283Z,97201.20
2019-01-15T00:52:14.211Z,97206.22
2019-01-15T00:54:43.886Z,97206.41
2019-01-15T00:57:14.644Z,97214.56
2019-01-15T00:59:45.292Z,97212.06
2019-01-15T01:02:15.153Z,97223.49
2019-01-15T01:04:44.919Z,97213.46
2019-01-15T01:07:15.295Z,97223.22
2019-01-15T01:09:45.486Z,97211.61
2019-01-15T01:12:22.024Z,97219.68
2019-01-15T01:14:46.785Z,97221.58
2019-01-15T01:17:17.203Z,97225.59
2019-01-15T01:19:47.096Z,97239.14
2019-01-15T01:22:19.016Z,97231.22
2019-01-15T01:24:49.299Z,97233.76
2019-01-15T01:27:18.934Z,97234.81
2019-01-15T01:29:49.198Z,97235.14
2019-01-15T01:32:21.322Z,97239.10
2019-01-15T01:34:51.559Z,97247.71
2019-01-15T01:37:22.122Z,97249.41
2019-01-15T01:39:51.944Z,97244.20
2019-01-15T01:42:21.797Z,97245.92
2019-01-15T01:44:51.920Z,97254.42
2019-01-15T01:47:21.580Z,97246.31
2019-01-15T01:49:51.900Z,97259.09
2019-01-15T01:52:22.416Z,97273.84
2019-01-15T01:54:52.289Z,97275.45
2019-01-15T01:57:22.171Z,97282.68
2019-01-15T01:59:51.982Z,97290.84
2019-01-15T02:02:22.244Z,97291.20
2019-01-15T02:04:52.627Z,97290.72
2019-01-15T02:07:22.822Z,97286.30
2019-01-15T02:09:52.921Z,97294.92
2019-01-15T02:12:23.111Z,97288.84
2019-01-15T02:14:54.145Z,97294.92
2019-01-15T02:17:25.642Z,97291.65
2019-01-15T02:19:57.809Z,97288.37
2019-01-15T02:22:29.777Z,97295.86
2019-01-15T02:25:00.500Z,97301.21
2019-01-15T02:27:31.134Z,97305.30
2019-01-15T02:30:00.911Z,97302.87
2019-01-15T02:32:31.707Z,97313.19
2019-01-15T02:35:02.735Z,97310.31
2019-01-15T02:37:33.465Z,97319.05
2019-01-15T02:40:03.474Z,97320.48
2019-01-15T02:42:33.231Z,97324.68
2019-01-15T02:45:03.070Z,97327.11
2019-01-15T02:47:32.875Z,97328.95
2019-01-15T02:50:03.794Z,97333.42
2019-01-15T02:52:33.581Z,97328.53
2019-01-15T02:55:03.953Z,97333.22
2019-01-15T02:57:33.809Z,97336.93
2019-01-15T03:00:03.875Z,97334.48
2019-01-15T03:02:33.929Z,97328.70
2019-01-15T03:05:03.996Z,97330.31
2019-01-15T03:07:34.140Z,97336.81
2019-01-15T03:10:04.837Z,97334.12
2019-01-15T03:12:34.790Z,97335.94
2019-01-15T03:15:06.182Z,97336.33
2019-01-15T03:17:35.952Z,97331.24
2019-01-15T03:20:07.179Z,97331.19
2019-01-15T03:22:37.046Z,97331.58
2019-01-15T03:25:08.341Z,97326.83
2019-01-15T03:27:38.373Z,97326.28
2019-01-15T03:30:11.175Z,97324.95
2019-01-15T03:32:41.828Z,97327.16
2019-01-15T03:35:12.498Z,97334.63
2019-01-15T03:37:42.491Z,97332.18
2019-01-15T03:40:17.590Z,97332.42
2019-01-15T03:42:47.782Z,97339.48
2019-01-15T03:45:18.198Z,97336.89
2019-01-15T03:47:48.523Z,97344.50
2019-01-15T03:50:19.129Z,97349.74
2019-01-15T03:52:49.871Z,97350.52
2019-01-15T03:55:21.064Z,97356.87
2019-01-15T03:57:51.430Z,97347.33
2019-01-15T04:00:24.574Z,97359.36
2019-01-15T04:02:56.034Z,97357.30
2019-01-15T04:05:26.531Z,97358.19
2019-01-15T04:08:01.336Z,97360.17
2019-01-15T04:10:31.792Z,97371.00
2019-01-15T04:13:02.177Z,97365.98
2019-01-15T04:15:32.331Z,97362.44
2019-01-15T04:18:02.875Z,97367.64
2019-01-15T04:20:33.027Z,97358.14
2019-01-15T04:23:03.177Z,97363.37
2019-01-15T04:25:33.243Z,97378.45
2019-01-15T04:28:03.339Z,97378.94
2019-01-15T04:30:33.479Z,97371.33
2019-01-15T04:33:03.637Z,97371.33
2019-01-15T04:35:33.900Z,97373.05
2019-01-15T04:38:04.386Z,97376.41
2019-01-15T04:40:34.574Z,97373.20
2019-01-15T04:43:04.808Z,97375.20
2019-01-15T04:45:35.395Z,97377.73
2019-01-15T04:48:05.710Z,97385.42
2019-01-15T04:50:36.033Z,97391.53
2019-01-15T04:53:06.256Z,97385.64
2019-01-15T04:55:36.500Z,97400.16
2019-01-15T04:58:06.645Z,97400.64
2019-01-15T05:00:36.887Z,97393.56
2019-01-15T05:03:09.469Z,97370.49
2019-01-15T05:05:39.241Z,97394.62
2019-01-15T05:08:09.652Z,97399.65
2019-01-15T05:10:39.826Z,97400.86
2019-01-15T05:13:10.078Z,97407.59
2019-01-15T05:15:40.508Z,97407.54
2019-01-15T05:18:10.802Z,97409.98
2019-01-15T05:20:41.151Z,97417.60
2019-01-15T05:23:11.338Z,97425.55
2019-01-15T05:25:41.509Z,97416.20
2019-01-15T05:28:11.584Z,97411.91
2019-01-15T05:30:41.694Z,97417.32
2019-01-15T05:33:11.870Z,97422.34
2019-01-15T05:35:42.046Z,97425.27
2019-01-15T05:38:12.131Z,97431.62
2019-01-15T05:40:42.224Z,97438.25
2019-01-15T05:43:12.398Z,97442.39
2019-01-15T05:45:45.712Z,97432.16
2019-01-15T05:48:29.117Z,97450.27
2019-01-15T05:51:21.277Z,97452.32
2019-01-15T05:53:51.620Z,97455.25
2019-01-15T05:56:21.765Z,97443.27
2019-01-15T05:58:51.967Z,97442.82
2019-01-15T06:01:22.140Z,97451.38
2019-01-15T06:03:52.336Z,97446.75
2019-01-15T06:06:22.617Z,97445.64
2019-01-15T06:08:52.817Z,97449.62
2019-01-15T06:11:22.904Z,97446.52
2019-01-15T06:13:53.669Z,97438.42
2019-01-15T06:16:24.108Z,97442.10
2019-01-15T06:18:55.009Z,97440.73
2019-01-15T06:21:25.371Z,97441.16
2019-01-15T06:23:55.520Z,97448.91
2019-01-15T06:26:25.757Z,97445.09
2019-01-15T06:28:56.383Z,97440.67
2019-01-15T06:31:26.477Z,97436.08
2019-01-15T06:33:56.975Z,97447.02
2019-01-15T06:36:27.114Z,97457.50
2019-01-15T06:38:57.645Z,97465.58
2019-01-15T06:41:27.958Z,97461.64
2019-01-15T06:43:58.363Z,97465.45
2019-01-15T06:46:28.666Z,97470.14
2019-01-15T06:48:58.837Z,97467.11
2019-01-15T06:51:28.992Z,97482.90
2019-01-15T06:53:59.213Z,97475.73
2019-01-15T06:56:29.296Z,97480.30
2019-01-15T06:58:59.802Z,97482.41
2019-01-15T07:01:30.103Z,97489.24
2019-01-15T07:04:00.269Z,97484.72
2019-01-15T07:06:30.524Z,97484.10
2019-01-15T07:09:01.299Z,97481.95
2019-01-15T07:11:31.470Z,97476.71
2019-01-15T07:14:01.694Z,97477.98
2019-01-15T07:16:32.520Z,97477.66
2019-01-15T07:19:02.691Z,97477.98
2019-01-15T07:21:33.218Z,97468.22
2019-01-15T07:24:03.537Z,97467.83
2019-01-15T07:26:33.858Z,97473.72
2019-01-15T07:29:04.145Z,97470.30
2019-01-15T07:31:34.307Z,97473.84
2019-01-15T07:34:04.819Z,97481.62
2019-01-15T07:36:34.966Z,97487.16
2019-01-15T07:39:08.496Z,97484.49
2019-01-15T07:41:38.746Z,97486.22
2019-01-15T07:44:08.981Z,97483.06
2019-01-15T07:46:39.463Z,97491.30
2019-01-15T07:49:09.618Z,97493.84
2019-01-15T07:51:40.181Z,97489.38
2019-01-15T07:54:10.511Z,97494.84
2019-01-15T07:56:40.687Z,97497.55
2019-01-15T07:59:11.156Z,97503.50
2019-01-15T08:01:42.267Z,97504.45
2019-01-15T08:04:12.463Z,97506.34
2019-01-15T08:06:42.623Z,97516.66
2019-01-15T08:09:12.950Z,97508.38
2019-01-15T08:11:43.364Z,97517.27
2019-01-15T08:14:13.519Z,97525.77
2019-01-15T08:16:43.729Z,97520.43
2019-01-15T08:19:13.844Z,97520.27
2019-01-15T08:21:44.405Z,97519.22
2019-01-15T08:24:14.518Z,97525.96
2019-01-15T08:26:44.625Z,97512.92
2019-01-15T08:29:14.863Z,97526.67
2019-01-15T08:31:44.954Z,97519.83
2019-01-15T08:34:15.046Z,97518.63
2019-01-15T08:36:45.378Z,97511.70
2019-01-15T08:39:16.166Z,97509.56
2019-01-15T08:41:46.567Z,97501.21
2019-01-15T08:44:19.301Z,97514.41
2019-01-15T08:46:48.551Z,97513.36
2019-01-15T08:49:19.044Z,97513.03
2019-01-15T08:51:49.570Z,97509.10
2019-01-15T08:54:19.665Z,97512.03
2019-01-15T08:56:49.912Z,97512.58
2019-01-15T08:59:20.033Z,97508.53
2019-01-15T09:01:50.193Z,97505.17
2019-01-15T09:04:20.370Z,97501.14
2019-01-15T09:06:50.625Z,97505.17
2019-01-15T09:09:20.768Z,97495.83
2019-01-15T09:11:51.087Z,97500.06
2019-01-15T09:14:26.769Z,97494.44
2019-01-15T09:16:53.138Z,97488.30
2019-01-15T09:19:23.529Z,97492.16
2019-01-15T09:21:53.697Z,97490.02
2019-01-15T09:24:23.956Z,97495.10
2019-01-15T09:26:54.087Z,97492.89
2019-01-15T09:29:24.243Z,97488.08
2019-01-15T09:31:54.396Z,97492.05
2019-01-15T09:34:24.647Z,97496.19
2019-01-15T09:36:55.358Z,97499.67
2019-01-15T09:39:25.621Z,97493.98
2019-01-15T09:41:56.084Z,97499.40
2019-01-15T09:44:26.444Z,97487.69
2019-01-15T09:46:56.832Z,97492.53
2019-01-15T09:49:27.313Z,97485.50
2019-01-15T09:51:57.979Z,97490.74
2019-01-15T09:54:28.550Z,97491.53
2019-01-15T09:56:58.911Z,97491.80
2019-01-15T09:59:29.377Z,97495.28
2019-01-15T10:02:01.316Z,97496.10
2019-01-15T10:04:31.660Z,97495.77
2019-01-15T10:07:02.220Z,97504.15
2019-01-15T10:09:32.990Z,97501.94
2019-01-15T10:12:03.661Z,97494.84
2019-01-15T10:14:41.200Z,97488.57
2019-01-15T10:17:08.562Z,97484.02
2019-01-15T10:19:40.158Z,97473.51
2019-01-15T10:22:10.835Z,97465.27
2019-01-15T10:24:42.256Z,97452.94
2019-01-15T10:27:13.867Z,97457.48
2019-01-15T10:29:45.525Z,97460.03
2019-01-15T10:32:48.325Z,97456.80
2019-01-15T10:35:58.934Z,97449.22
2019-01-15T10:38:32.090Z,97449.65
2019-01-15T10:41:03.192Z,97450.39
2019-01-15T10:43:35.015Z,97446.48
2019-01-15T10:46:07.062Z,97441.08
2019-01-15T10:48:37.419Z,97435.91
2019-01-15T10:51:07.779Z,97430.41
2019-01-15T10:53:38.030Z,97436.29
2019-01-15T10:56:08.277Z,97440.20
2019-01-15T10:58:38.588Z,97431.14
2019-01-15T11:01:09.021Z,97435.83
2019-01-15T11:03:39.308Z,97433.63
2019-01-15T11:06:09.696Z,97424.27
2019-01-15T11:08:40.026Z,97421.86
2019-01-15T11:11:10.829Z,97418.83
2019-01-15T11:13:40.993Z,97418.92
2019-01-15T11:16:11.296Z,97405.30
2019-01-15T11:18:41.976Z,97392.24
2019-01-15T11:21:12.411Z,97392.17
2019-01-15T11:23:42.855Z,97390.07
2019-01-15T11:26:13.254Z,97388.19
2019-01-15T11:28:43.774Z,97393.05
2019-01-15T11:31:14.402Z,97390.05
2019-01-15T11:33:44.690Z,97381.34
2019-01-15T11:36:15.499Z,97375.27
2019-01-15T11:38:46.139Z,97370.03
2019-01-15T11:41:16.426Z,97383.26
2019-01-15T11:43:46.588Z,97366.06
2019-01-15T11:46:17.273Z,97374.58
2019-01-15T11:48:47.668Z,97369.02
2019-01-15T11:51:18.124Z,97370.59
2019-01-15T11:53:48.508Z,97371.09
2019-01-15T11:56:19.529Z,97370.03
2019-01-15T11:58:50.702Z,97366.57
2019-01-15T12:01:38.933Z,97361.71
2019-01-15T12:04:17.714Z,97362.93
2019-01-15T12:07:08.214Z,97346.84
2019-01-15T12:10:01.562Z,97349.56
2019-01-15T12:12:49.497Z,97345.04
2019-01-15T12:15:39.050Z,97371.02
2019-01-15T12:18:28.969Z,97343.72
2019-01-15T12:21:13.990Z,97354.36
2019-01-15T12:24:02.349Z,97349.22
2019-01-15T12:26:50.096Z,97343.06
2019-01-15T12:29:39.388Z,97341.92
2019-01-15T12:32:26.693Z,97342.72
2019-01-15T12:35:25.178Z,97340.74
2019-01-15T12:38:13.145Z,97338.09
2019-01-15T12:41:00.905Z,97337.73
2019-01-15T12:43:53.440Z,97336.58
2019-01-15T12:46:42.132Z,97344.16
2019-01-15T12:49:34.766Z,97324.98
2019-01-15T12:52:34.801Z,97325.09
2019-01-15T12:55:15.159Z,97326.45
2019-01-15T12:58:03.120Z,97313.71
2019-01-15T13:00:58.372Z,97311.41
2019-01-15T13:03:45.943Z,97312.11
2019-01-15T13:06:25.508Z,97306.41
2019-01-15T13:09:13.329Z,97308.48
2019-01-15T13:12:02.906Z,97306.89
2019-01-15T13:14:47.931Z,97304.06
2019-01-15T13:17:29.732Z,97318.66
2019-01-15T13:20:28.162Z,97304.73
2019-01-15T13:23:16.073Z,97296.27
2019-01-15T13:26:17.401Z,97299.39
2019-01-15T13:28:58.362Z,97299.03
2019-01-15T13:32:02.863Z,97297.73
2019-01-15T13:34:51.103Z,97297.09
2019-01-15T13:37:44.795Z,97305.24
2019-01-15T13:40:43.398Z,97302.17
2019-01-15T13:43:27.125Z,97297.36
2019-01-15T13:46:05.615Z,97291.30
2019-01-15T13:49:03.940Z,97305.74
2019-01-15T13:51:56.039Z,97294.85
2019-01-15T13:55:00.766Z,97294.53
2019-01-15T13:57:44.734Z,97298.56
2019-01-15T14:00:38.683Z,97295.89
2019-01-15T14:03:32.874Z,97289.47
2019-01-15T14:06:31.150Z,97289.83
2019-01-15T14:09:19.820Z,97294.02
2019-01-15T14:12:00.136Z,97295.57
2019-01-15T14:15:05.505Z,97296.33
2019-01-15T14:18:01.032Z,97293.73
2019-01-15T14:20:51.574Z,97293.61
2019-01-15T14:23:38.873Z,97299.51
2019-01-15T14:26:44.679Z,97287.95
2019-01-15T14:29:43.296Z,97300.19
2019-01-15T14:32:34.812Z,97295.56
2019-01-15T14:35:34.576Z,97300.83
2019-01-15T14:38:30.525Z,97294.09
2019-01-15T14:41:18.313Z,97297.92
2019-01-15T14:44:26.392Z,97292.02
2019-01-15T14:47:31.241Z,97300.16
2019-01-15T14:50:18.998Z,97290.38
2019-01-15T14:53:11.016Z,97295.13
2019-01-15T14:55:53.345Z,97298.13
2019-01-15T14:58:42.612Z,97298.08
2019-01-15T15:01:24.676Z,97295.53
2019-01-15T15:04:14.029Z,97292.58
2019-01-15T15:07:02.114Z,97295.80
2019-01-15T15:09:50.360Z,97301.59
2019-01-15T15:12:28.109Z,97303.22
2019-01-15T15:15:29.790Z,97293.38
2019-01-15T15:18:25.588Z,97303.94
2019-01-15T15:21:18.318Z,97305.26
2019-01-15T15:24:13.979Z,97296.77
2019-01-15T15:26:56.302Z,97300.95
2019-01-15T15:29:48.321Z,97297.61
2019-01-15T15:32:40.301Z,97294.09
2019-01-15T15:35:29.097Z,97306.05
2019-01-15T15:38:24.816Z,97291.53
2019-01-15T15:41:19.194Z,97302.63
2019-01-15T15:43:56.574Z,97303.33
2019-01-15T15:46:44.830Z,97304.70
2019-01-15T15:49:33.046Z,97306.97
2019-01-15T15:52:25.647Z,97313.70
2019-01-15T15:55:18.073Z,97306.97
2019-01-15T15:58:16.267Z,97301.86
2019-01-15T16:01:05.171Z,97312.07
2019-01-15T16:03:41.591Z,97314.50
2019-01-15T16:06:36.935Z,97307.60
2019-01-15T16:09:28.838Z,97306.64
2019-01-15T16:12:14.398Z,97302.69
2019-01-15T16:14:52.182Z,97296.19
2019-01-15T16:18:00.062Z,97306.31
2019-01-15T16:20:48.249Z,97297.83
2019-01-15T16:23:42.866Z,97298.30
2019-01-15T16:26:28.587Z,97303.41
2019-01-15T16:29:33.076Z,97299.45
2019-01-15T16:32:28.031Z,97298.77
2019-01-15T16:35:12.377Z,97296.88
2019-01-15T16:38:00.146Z,97287.78
2019-01-15T16:40:46.453Z,97290.57
2019-01-15T16:43:37.005Z,97291.45
2019-01-15T16:46:16.946Z,97283.27
2019-01-15T16:48:55.097Z,97283.55
2019-01-15T16:51:41.281Z,97281.23
2019-01-15T16:54:43.799Z,97281.06
2019-01-15T16:57:33.226Z,97282.81
2019-01-15T17:00:23.402Z,97287.11
2019-01-15T17:03:12.869Z,97286.23
2019-01-15T17:06:17.731Z,97281.19
2019-01-15T17:09:05.526Z,97287.77
2019-01-15T17:11:54.595Z,97281.00
2019-01-15T17:14:49.737Z,97283.27
2019-01-15T17:17:37.586Z,97280.37
2019-01-15T17:20:31.697Z,97281.29
2019-01-15T17:23:21.069Z,97280.94
2019-01-15T17:26:09.499Z,97288.59
2019-01-15T17:29:03.239Z,97285.56
2019-01-15T17:31:51.339Z,97297.91
2019-01-15T17:34:39.617Z,97292.81
2019-01-15T17:37:27.663Z,97300.77
2019-01-15T17:40:11.456Z,97304.07
2019-01-15T17:43:13.309Z,97319.72
2019-01-15T17:46:02.108Z,97321.52
2019-01-15T17:49:07.127Z,97322.80
2019-01-15T17:51:56.309Z,97321.00
2019-01-15T17:54:49.622Z,97326.19
2019-01-15T17:57:44.819Z,97327.63
2019-01-15T18:00:29.341Z,97315.48
2019-01-15T18:03:18.303Z,97316.16
2019-01-15T18:06:18.100Z,97324.86
2019-01-15T18:09:06.093Z,97319.08
2019-01-15T18:11:53.052Z,97323.70
2019-01-15T18:14:44.570Z,97322.20
2019-01-15T18:17:45.172Z,97331.70
2019-01-15T18:20:27.658Z,97327.39
2019-01-15T18:23:22.721Z,97329.73
2019-01-15T18:26:30.563Z,97317.89
2019-01-15T18:29:21.675Z,97306.81
2019-01-15T18:32:09.700Z,97305.45
2019-01-15T18:35:04.795Z,97297.05
2019-01-15T18:37:52.730Z,97323.00
2019-01-15T18:40:57.211Z,97309.80
2019-01-15T18:43:47.335Z,97303.30
2019-01-15T18:46:25.188Z,97306.81
2019-01-15T18:49:06.908Z,97300.00
2019-01-15T18:51:59.571Z,97299.95
2019-01-15T18:54:48.506Z,97304.98
2019-01-15T18:57:42.902Z,97311.31
2019-01-15T19:00:33.144Z,97308.68
2019-01-15T19:03:21.482Z,97305.38
2019-01-15T19:06:11.748Z,97306.20
2019-01-15T19:08:54.429Z,97311.52
2019-01-15T19:11:42.842Z,97315.30
2019-01-15T19:14:30.279Z,97308.53
2019-01-15T19:17:14.037Z,97315.70
2019-01-15T19:20:00.261Z,97310.16
2019-01-15T19:22:40.026Z,97313.02
2019-01-15T19:25:28.119Z,97309.11
2019-01-15T19:28:18.470Z,97298.48
2019-01-15T19:31:06.963Z,97304.45
2019-01-15T19:34:02.488Z,97307.48
2019-01-15T19:36:50.515Z,97309.91
2019-01-15T19:39:45.415Z,97310.08
2019-01-15T19:42:53.564Z,97307.88
2019-01-15T19:45:36.097Z,97310.95
2019-01-15T19:48:22.389Z,97316.09
2019-01-15T19:51:04.921Z,97312.88
2019-01-15T19:53:42.915Z,97319.25
2019-01-15T19:56:35.056Z,97319.57
2019-01-15T19:59:21.696Z,97318.42
2019-01-15T20:02:09.901Z,97321.02
2019-01-15T20:04:59.247Z,97320.52
2019-01-15T20:08:00.509Z,97324.84
2019-01-15T20:10:52.670Z,97319.70
2019-01-15T20:13:36.826Z,97315.52
2019-01-15T20:16:26.186Z,97324.09
2019-01-15T20:19:14.427Z,97322.41
2019-01-15T20:22:18.121Z,97318.54
2019-01-15T20:25:10.291Z,97317.19
2019-01-15T20:27:58.119Z,97318.89
2019-01-15T20:30:46.410Z,97323.92
2019-01-15T20:33:28.543Z,97322.12
2019-01-15T20:36:27.018Z,97316.18
2019-01-15T20:39:31.216Z,97321.72
2019-01-15T20:42:29.688Z,97317.85
2019-01-15T20:45:22.030Z,97319.70
2019-01-15T20:48:11.239Z,97317.09
2019-01-15T20:51:19.136Z,97318.25
2019-01-15T20:54:04.337Z,97321.32
2019-01-15T20:56:52.230Z,97318.65
2019-01-15T20:59:47.185Z,97315.58
2019-01-15T21:02:30.656Z,97313.15
2019-01-15T21:05:10.839Z,97321.16
2019-01-15T21:07:58.688Z,97316.53
2019-01-15T21:10:46.620Z,97313.02
2019-01-15T21:13:34.870Z,97317.33
2019-01-15T21:16:24.381Z,97317.37
2019-01-15T21:19:12.450Z,97313.62
2019-01-15T21:22:08.010Z,97302.50
2019-01-15T21:24:54.205Z,97306.56
2019-01-15T21:27:37.689Z,97302.66
2019-01-15T21:30:32.464Z,97305.95
2019-01-15T21:33:30.931Z,97308.51
2019-01-15T21:36:26.182Z,97310.97
2019-01-15T21:39:15.675Z,97315.72
2019-01-15T21:42:11.258Z,97310.14
2019-01-15T21:45:00.923Z,97310.97
2019-01-15T21:47:43.290Z,97305.52
2019-01-15T21:50:44.997Z,97296.23
2019-01-15T21:53:26.938Z,97297.47
2019-01-15T21:56:13.725Z,97297.03
2019-01-15T21:58:54.546Z,97295.09
2019-01-15T22:01:46.747Z,97289.06
2019-01-15T22:04:36.315Z,97299.27
2019-01-15T22:07:35.985Z,97298.78
2019-01-15T22:10:28.116Z,97299.27
2019-01-15T22:13:31.281Z,97295.09
2019-01-15T22:16:32.743Z,97282.25
2019-01-15T22:19:32.814Z,97283.48
2019-01-15T22:22:32.299Z,97280.41
2019-01-15T22:25:31.979Z,97281.52
2019-01-15T22:28:27.772Z,97286.17
2019-01-15T22:31:22.398Z,97286.27
2019-01-15T22:34:10.831Z,97276.94
2019-01-15T22:36:59.107Z,97271.89
2019-01-15T22:39:48.774Z,97279.19
2019-01-15T22:42:40.941Z,97269.34
2019-01-15T22:45:29.723Z,97270.52
2019-01-15T22:48:14.283Z,97276.90
2019-01-15T22:51:04.382Z,97264.15
2019-01-15T22:53:53.925Z,97268.42
2019-01-15T22:56:42.090Z,97265.87
2019-01-15T22:59:26.566Z,97261.95
2019-01-15T23:02:29.917Z,97260.68
2019-01-15T23:05:12.653Z,97261.64
2019-01-15T23:08:16.969Z,97259.41
2019-01-15T23:11:15.416Z,97259.49
2019-01-15T23:13:52.938Z,97250.00
2019-01-15T23:16:39.865Z,97258.93
2019-01-15T23:19:28.462Z,97250.36
2019-01-15T23:22:11.023Z,97244.78
2019-01-15T23:24:59.215Z,97251.23
2019-01-15T23:27:59.753Z,97247.24
2019-01-15T23:30:49.069Z,97246.89
2019-01-15T23:33:34.829Z,97254.23
2019-01-15T23:36:17.457Z,97250.05
2019-01-15T23:38:58.953Z,97247.66
2019-01-15T23:41:46.824Z,97245.95
2019-01-15T23:44:28.783Z,97248.89
2019-01-15T23:47:11.864Z,97244.11
2019-01-15T23:50:01.053Z,97244.95
2019-01-15T23:52:49.512Z,97245.59
2019-01-15T23:55:38.107Z,97247.14
2019-01-15T23:58:16.062Z,97250.00
